createdAt,value
2023-04-17T00:01:11.036Z,99.90
2023-04-17T00:03:38.281Z,99.90
2023-04-17T00:06:05.356Z,99.90
2023-04-17T00:08:33.901Z,99.90
2023-04-17T00:11:07.985Z,99.90
2023-04-17T00:13:35.265Z,99.90
2023-04-17T00:16:02.119Z,99.90
2023-04-17T00:18:28.921Z,99.90
2023-04-17T00:20:56.871Z,99.90
2023-04-17T00:23:23.889Z,99.90
2023-04-17T00:25:50.719Z,99.90
2023-04-17T00:28:17.506Z,99.90
2023-04-17T00:30:44.214Z,99.90
2023-04-17T00:33:10.876Z,99.90
2023-04-17T00:35:37.628Z,99.90
2023-04-17T00:38:09.121Z,99.90
2023-04-17T00:40:36.373Z,99.90
2023-04-17T00:43:04.445Z,99.90
2023-04-17T00:45:31.652Z,99.90
2023-04-17T00:48:00.918Z,99.90
2023-04-17T00:50:28.719Z,99.90
2023-04-17T00:52:56.035Z,99.90
2023-04-17T00:55:22.941Z,99.90
2023-04-17T00:57:50.599Z,99.90
2023-04-17T01:00:18.329Z,99.90
2023-04-17T01:02:46.649Z,99.90
2023-04-17T01:05:13.815Z,99.90
2023-04-17T01:07:42.009Z,99.90
2023-04-17T01:10:09.730Z,99.90
2023-04-17T01:12:36.777Z,99.90
2023-04-17T01:15:03.924Z,99.90
2023-04-17T01:17:30.655Z,99.90
2023-04-17T01:19:57.893Z,99.90
2023-04-17T01:22:24.641Z,99.90
2023-04-17T01:24:51.409Z,99.90
2023-04-17T01:27:18.249Z,99.90
2023-04-17T01:29:45.440Z,99.90
2023-04-17T01:32:12.254Z,99.90
2023-04-17T01:34:38.957Z,99.90
2023-04-17T01:37:05.797Z,99.90
2023-04-17T01:39:32.582Z,99.90
2023-04-17T01:41:59.428Z,99.90
2023-04-17T01:44:26.316Z,99.90
2023-04-17T01:46:53.080Z,99.90
2023-04-17T01:49:20.180Z,99.90
2023-04-17T01:51:46.905Z,99.90
2023-04-17T01:54:15.507Z,99.90
2023-04-17T01:56:42.467Z,99.90
2023-04-17T01:59:10.463Z,99.90
2023-04-17T02:01:37.413Z,99.90
2023-04-17T02:04:04.656Z,99.90
2023-04-17T02:06:32.570Z,99.90
2023-04-17T02:08:59.649Z,99.90
2023-04-17T02:11:26.438Z,99.90
2023-04-17T02:13:53.563Z,99.90
2023-04-17T02:16:21.808Z,99.90
2023-04-17T02:18:49.634Z,99.90
2023-04-17T02:21:16.574Z,99.90
2023-04-17T02:23:43.917Z,99.90
2023-04-17T02:26:10.791Z,99.90
2023-04-17T02:28:37.507Z,99.90
2023-04-17T02:31:08.826Z,99.90
2023-04-17T02:33:36.969Z,99.90
2023-04-17T02:36:07.070Z,99.90
2023-04-17T02:38:33.779Z,99.90
2023-04-17T02:41:00.616Z,99.90
2023-04-17T02:43:27.321Z,99.90
2023-04-17T02:45:54.011Z,99.90
2023-04-17T02:48:20.885Z,99.90
2023-04-17T02:50:47.596Z,99.90
2023-04-17T02:53:14.284Z,99.90
2023-04-17T02:55:40.999Z,99.90
2023-04-17T02:58:07.743Z,99.90
2023-04-17T03:00:34.537Z,99.90
2023-04-17T03:03:03.026Z,99.90
2023-04-17T03:05:30.637Z,99.90
2023-04-17T03:08:00.373Z,99.90
2023-04-17T03:10:27.223Z,99.90
2023-04-17T03:12:53.909Z,99.90
2023-04-17T03:15:20.743Z,99.90
2023-04-17T03:17:47.615Z,99.90
2023-04-17T03:20:16.206Z,99.90
2023-04-17T03:22:43.063Z,99.90
2023-04-17T03:25:10.361Z,99.90
2023-04-17T03:27:38.572Z,99.90
2023-04-17T03:30:06.206Z,99.90
2023-04-17T03:32:33.020Z,99.90
2023-04-17T03:34:59.748Z,99.90
2023-04-17T03:37:26.456Z,99.90
2023-04-17T03:39:53.185Z,99.90
2023-04-17T03:42:19.860Z,99.90
2023-04-17T03:44:46.725Z,99.90
2023-04-17T03:47:13.399Z,99.90
2023-04-17T03:49:40.095Z,99.90
2023-04-17T03:52:06.807Z,99.90
2023-04-17T03:54:35.747Z,99.90
2023-04-17T03:57:03.386Z,99.90
2023-04-17T03:59:33.619Z,99.90
2023-04-17T04:02:00.640Z,99.90
2023-04-17T04:04:27.746Z,99.90
2023-04-17T04:06:57.501Z,99.90
2023-04-17T04:09:25.640Z,99.90
2023-04-17T04:11:52.351Z,99.90
2023-04-17T04:14:19.528Z,99.90
2023-04-17T04:16:46.271Z,99.90
2023-04-17T04:19:13.173Z,99.90
2023-04-17T04:21:42.149Z,99.90
2023-04-17T04:24:10.175Z,99.90
2023-04-17T04:26:37.914Z,99.90
2023-04-17T04:29:04.756Z,99.90
2023-04-17T04:31:31.986Z,99.90
2023-04-17T04:33:59.084Z,99.90
2023-04-17T04:36:29.887Z,99.90
2023-04-17T04:39:00.890Z,99.90
2023-04-17T04:41:29.833Z,99.90
2023-04-17T04:43:56.589Z,99.90
2023-04-17T04:46:23.471Z,99.90
2023-04-17T04:48:50.230Z,99.90
2023-04-17T04:51:18.889Z,99.90
2023-04-17T04:53:45.996Z,99.90
2023-04-17T04:56:12.760Z,99.90
2023-04-17T04:58:39.525Z,99.90
2023-04-17T05:01:06.951Z,99.90
2023-04-17T05:03:34.064Z,99.90
2023-04-17T05:06:00.903Z,99.90
2023-04-17T05:08:27.942Z,99.90
2023-04-17T05:10:54.703Z,99.90
2023-04-17T05:13:21.419Z,99.90
2023-04-17T05:15:48.071Z,99.90
2023-04-17T05:18:14.799Z,99.90
2023-04-17T05:20:41.515Z,99.90
2023-04-17T05:23:08.232Z,99.90
2023-04-17T05:25:34.985Z,99.90
2023-04-17T05:28:01.657Z,99.90
2023-04-17T05:30:28.420Z,99.90
2023-04-17T05:32:55.184Z,99.90
2023-04-17T05:35:22.020Z,99.90
2023-04-17T05:37:48.795Z,99.90
2023-04-17T05:40:15.734Z,99.90
2023-04-17T05:42:42.458Z,99.90
2023-04-17T05:45:13.567Z,99.90
2023-04-17T05:47:41.244Z,99.90
2023-04-17T05:50:08.651Z,99.90
2023-04-17T05:52:38.697Z,99.90
2023-04-17T05:55:06.833Z,99.90
2023-04-17T05:57:33.581Z,99.90
2023-04-17T06:00:00.293Z,99.90
2023-04-17T06:02:27.280Z,99.90
2023-04-17T06:04:54.428Z,99.90
2023-04-17T06:07:21.670Z,99.90
2023-04-17T06:09:48.564Z,99.90
2023-04-17T06:12:16.313Z,99.90
2023-04-17T06:14:43.753Z,99.90
2023-04-17T06:17:12.290Z,99.90
2023-04-17T06:19:39.353Z,99.90
2023-04-17T06:22:06.117Z,99.90
2023-04-17T06:24:33.121Z,99.90
2023-04-17T06:26:59.846Z,99.90
2023-04-17T06:29:26.540Z,99.90
2023-04-17T06:31:53.264Z,99.90
2023-04-17T06:34:19.921Z,99.90
2023-04-17T06:36:46.770Z,99.90
2023-04-17T06:39:13.670Z,99.90
2023-04-17T06:41:40.460Z,99.90
2023-04-17T06:44:07.690Z,99.90
2023-04-17T06:46:34.484Z,99.90
2023-04-17T06:49:02.820Z,99.90
2023-04-17T06:51:29.499Z,99.90
2023-04-17T06:53:56.215Z,99.90
2023-04-17T06:56:24.203Z,99.90
2023-04-17T06:58:51.396Z,99.90
2023-04-17T07:01:18.155Z,99.90
2023-04-17T07:03:45.331Z,99.90
2023-04-17T07:06:12.317Z,99.90
2023-04-17T07:08:39.436Z,99.90
2023-04-17T07:11:06.524Z,99.90
2023-04-17T07:13:33.427Z,99.90
2023-04-17T07:16:01.318Z,99.90
2023-04-17T07:18:29.578Z,99.90
2023-04-17T07:20:56.785Z,99.90
2023-04-17T07:23:23.756Z,99.90
2023-04-17T07:25:50.598Z,99.90
2023-04-17T07:28:18.066Z,99.90
2023-04-17T07:30:44.895Z,99.90
2023-04-17T07:33:11.873Z,99.90
2023-04-17T07:35:38.581Z,99.90
2023-04-17T07:38:05.434Z,99.90
2023-04-17T07:40:34.929Z,99.90
2023-04-17T07:43:01.637Z,99.90
2023-04-17T07:45:28.628Z,99.90
2023-04-17T07:47:55.492Z,99.90
2023-04-17T07:50:22.329Z,99.90
2023-04-17T07:52:49.081Z,99.90
2023-04-17T07:55:16.834Z,99.90
2023-04-17T07:57:43.583Z,99.90
2023-04-17T08:00:13.230Z,99.90
2023-04-17T08:02:40.467Z,99.90
2023-04-17T08:05:08.292Z,99.90
2023-04-17T08:07:36.024Z,99.90
2023-04-17T08:10:04.098Z,99.90
2023-04-17T08:12:30.819Z,99.90
2023-04-17T08:14:57.720Z,99.90
2023-04-17T08:17:26.371Z,99.90
2023-04-17T08:19:57.640Z,99.90
2023-04-17T08:22:25.497Z,99.90
2023-04-17T08:24:58.072Z,99.90
2023-04-17T08:27:25.839Z,99.90
2023-04-17T08:29:56.672Z,99.90
2023-04-17T08:32:23.481Z,99.90
2023-04-17T08:34:50.309Z,99.90
2023-04-17T08:37:17.047Z,99.90
2023-04-17T08:39:43.943Z,99.90
2023-04-17T08:42:16.505Z,99.90
2023-04-17T08:44:45.011Z,99.90
2023-04-17T08:47:13.326Z,99.90
2023-04-17T08:49:43.648Z,99.90
2023-04-17T08:52:11.326Z,99.90
2023-04-17T08:54:39.085Z,99.90
2023-04-17T08:57:06.308Z,99.90
2023-04-17T08:59:33.553Z,99.90
2023-04-17T09:02:08.230Z,99.90
2023-04-17T09:04:44.063Z,99.90
2023-04-17T09:07:13.158Z,99.90
2023-04-17T09:09:53.534Z,99.90
2023-04-17T09:12:24.754Z,99.90
2023-04-17T09:14:52.255Z,99.90
2023-04-17T09:17:20.228Z,99.90
2023-04-17T09:20:09.253Z,99.90
2023-04-17T09:22:37.221Z,99.90
2023-04-17T09:25:05.252Z,99.90
2023-04-17T09:27:32.513Z,99.90
2023-04-17T09:30:01.136Z,99.90
2023-04-17T09:32:28.690Z,99.90
2023-04-17T09:34:58.466Z,99.90
2023-04-17T09:37:25.499Z,99.90
2023-04-17T09:40:00.674Z,99.90
2023-04-17T09:42:28.588Z,99.90
2023-04-17T09:44:55.694Z,99.90
2023-04-17T09:47:22.866Z,99.90
2023-04-17T09:49:55.815Z,99.90
2023-04-17T09:52:23.964Z,99.90
2023-04-17T09:54:51.367Z,99.90
2023-04-17T09:57:18.823Z,99.90
2023-04-17T09:59:49.749Z,99.90
2023-04-17T10:02:18.635Z,99.90
2023-04-17T10:04:47.016Z,99.90
2023-04-17T10:07:14.138Z,99.90
2023-04-17T10:09:42.178Z,99.90
2023-04-17T10:12:18.402Z,99.90
2023-04-17T10:14:48.335Z,99.90
2023-04-17T10:17:32.331Z,99.90
2023-04-17T10:20:20.306Z,99.90
2023-04-17T10:22:57.203Z,99.90
2023-04-17T10:25:26.021Z,99.90
2023-04-17T10:27:54.799Z,99.90
2023-04-17T10:30:23.298Z,99.90
2023-04-17T10:33:13.256Z,99.90
2023-04-17T10:35:40.083Z,99.90
2023-04-17T10:38:08.241Z,99.90
2023-04-17T10:40:36.214Z,99.90
2023-04-17T10:43:04.487Z,99.90
2023-04-17T10:45:59.531Z,99.90
2023-04-17T10:48:38.361Z,99.90
2023-04-17T10:51:24.097Z,99.90
2023-04-17T10:53:55.592Z,99.90
2023-04-17T10:56:42.443Z,99.90
2023-04-17T10:59:10.054Z,99.90
2023-04-17T11:02:01.702Z,99.90
2023-04-17T11:04:34.008Z,99.90
2023-04-17T11:07:01.108Z,99.90
2023-04-17T11:09:29.433Z,99.90
2023-04-17T11:12:00.050Z,99.90
2023-04-17T11:14:26.746Z,99.90
2023-04-17T11:16:53.551Z,99.90
2023-04-17T11:19:24.977Z,99.90
2023-04-17T11:21:53.785Z,99.90
2023-04-17T11:24:28.851Z,99.90
2023-04-17T11:26:58.334Z,99.90
2023-04-17T11:29:26.079Z,99.90
2023-04-17T11:31:55.362Z,99.90
2023-04-17T11:34:23.106Z,99.90
2023-04-17T11:36:51.373Z,99.90
2023-04-17T11:39:19.890Z,99.50
2023-04-17T11:41:47.135Z,98.40
2023-04-17T11:44:14.917Z,99.90
2023-04-17T11:46:41.647Z,99.90
2023-04-17T11:49:08.998Z,99.90
2023-04-17T11:51:36.984Z,99.90
2023-04-17T11:54:03.936Z,99.90
2023-04-17T11:56:31.134Z,99.10
2023-04-17T11:58:59.254Z,98.40
2023-04-17T12:01:29.404Z,94.80
2023-04-17T12:03:57.703Z,93.60
2023-04-17T12:06:35.282Z,96.00
2023-04-17T12:09:02.941Z,96.50
2023-04-17T12:11:31.871Z,99.90
2023-04-17T12:14:00.047Z,93.40
2023-04-17T12:16:27.886Z,91.50
2023-04-17T12:18:55.207Z,92.60
2023-04-17T12:21:23.845Z,87.80
2023-04-17T12:23:51.032Z,92.90
2023-04-17T12:26:18.211Z,90.60
2023-04-17T12:28:44.930Z,90.70
2023-04-17T12:31:11.799Z,90.90
2023-04-17T12:33:38.664Z,92.50
2023-04-17T12:36:06.822Z,95.20
2023-04-17T12:38:33.945Z,98.60
2023-04-17T12:41:00.822Z,99.90
2023-04-17T12:43:27.563Z,99.90
2023-04-17T12:45:54.352Z,99.90
2023-04-17T12:48:21.322Z,99.90
2023-04-17T12:50:48.030Z,99.90
2023-04-17T12:53:15.763Z,99.90
2023-04-17T12:55:44.230Z,99.90
2023-04-17T12:58:12.408Z,99.90
2023-04-17T13:00:44.731Z,99.90
2023-04-17T13:03:12.244Z,99.90
2023-04-17T13:05:39.673Z,99.90
2023-04-17T13:08:06.421Z,99.90
2023-04-17T13:10:34.310Z,99.90
2023-04-17T13:13:02.265Z,99.90
2023-04-17T13:15:28.936Z,99.90
2023-04-17T13:17:56.178Z,99.90
2023-04-17T13:20:22.978Z,99.90
2023-04-17T13:22:49.898Z,99.90
2023-04-17T13:25:16.698Z,99.90
2023-04-17T13:27:43.438Z,99.90
2023-04-17T13:30:10.888Z,99.90
2023-04-17T13:32:37.743Z,99.90
2023-04-17T13:35:05.260Z,99.90
2023-04-17T13:37:32.099Z,99.90
2023-04-17T13:39:59.751Z,99.90
2023-04-17T13:42:26.806Z,99.90
2023-04-17T13:44:53.588Z,99.90
2023-04-17T13:47:20.844Z,99.90
2023-04-17T13:49:47.638Z,90.50
2023-04-17T13:52:14.534Z,93.70
2023-04-17T13:54:41.646Z,96.60
2023-04-17T13:57:09.572Z,97.20
2023-04-17T13:59:36.674Z,90.10
2023-04-17T14:02:04.178Z,92.20
2023-04-17T14:04:34.320Z,93.60
2023-04-17T14:07:01.178Z,89.00
2023-04-17T14:09:28.298Z,90.70
2023-04-17T14:11:54.973Z,81.60
2023-04-17T14:14:21.724Z,75.00
2023-04-17T14:16:50.817Z,82.30
2023-04-17T14:19:18.220Z,87.00
2023-04-17T14:21:45.139Z,91.70
2023-04-17T14:24:11.884Z,94.00
2023-04-17T14:26:38.796Z,99.70
2023-04-17T14:29:05.961Z,99.90
2023-04-17T14:31:32.721Z,99.90
2023-04-17T14:33:59.415Z,99.90
2023-04-17T14:36:26.282Z,99.90
2023-04-17T14:38:54.321Z,99.90
2023-04-17T14:41:21.337Z,99.90
2023-04-17T14:43:48.160Z,99.90
2023-04-17T14:46:15.002Z,99.90
2023-04-17T14:51:17.017Z,99.90
2023-04-17T14:53:43.778Z,99.90
2023-04-17T14:56:10.840Z,99.90
2023-04-17T14:58:37.795Z,99.90
2023-04-17T15:01:04.721Z,99.90
2023-04-17T15:03:32.329Z,99.90
2023-04-17T15:06:01.478Z,99.90
2023-04-17T15:08:29.522Z,99.90
2023-04-17T15:10:56.342Z,99.90
2023-04-17T15:13:23.251Z,99.90
2023-04-17T15:15:49.917Z,99.90
2023-04-17T15:18:16.677Z,99.90
2023-04-17T15:20:43.456Z,97.30
2023-04-17T15:23:10.239Z,96.40
2023-04-17T15:25:37.111Z,93.20
2023-04-17T15:28:04.059Z,84.60
2023-04-17T15:30:31.011Z,77.20
2023-04-17T15:32:57.735Z,64.30
2023-04-17T15:35:24.482Z,58.60
2023-04-17T15:37:51.156Z,58.30
2023-04-17T15:40:17.857Z,62.60
2023-04-17T15:42:44.630Z,57.10
2023-04-17T15:45:11.514Z,57.70
2023-04-17T15:47:38.284Z,54.60
2023-04-17T15:50:05.595Z,55.00
2023-04-17T15:52:32.294Z,58.50
2023-04-17T15:54:59.101Z,61.10
2023-04-17T15:57:25.862Z,65.30
2023-04-17T15:59:52.523Z,67.90
2023-04-17T16:02:19.319Z,66.90
2023-04-17T16:04:46.050Z,72.10
2023-04-17T16:07:14.112Z,74.70
2023-04-17T16:09:41.678Z,86.90
2023-04-17T16:12:10.297Z,88.20
2023-04-17T16:14:37.465Z,92.40
2023-04-17T16:17:04.521Z,90.60
2023-04-17T16:19:32.170Z,95.20
2023-04-17T16:21:58.861Z,93.30
2023-04-17T16:24:25.972Z,96.00
2023-04-17T16:27:03.170Z,99.90
2023-04-17T16:29:30.144Z,99.90
2023-04-17T16:31:57.062Z,99.90
2023-04-17T16:34:23.824Z,99.90
2023-04-17T16:36:50.563Z,99.90
2023-04-17T16:39:17.297Z,97.10
2023-04-17T16:41:44.052Z,96.30
2023-04-17T16:44:10.923Z,99.90
2023-04-17T16:46:52.022Z,99.90
2023-04-17T16:49:24.507Z,99.90
2023-04-17T16:51:51.193Z,99.90
2023-04-17T16:54:20.405Z,99.90
2023-04-17T16:56:48.434Z,99.90
2023-04-17T16:59:15.777Z,99.90
2023-04-17T17:01:42.470Z,99.90
2023-04-17T17:04:09.433Z,99.90
2023-04-17T17:06:36.228Z,99.90
2023-04-17T17:09:03.792Z,99.90
2023-04-17T17:11:30.521Z,99.90
2023-04-17T17:13:57.798Z,99.90
2023-04-17T17:16:24.703Z,99.90
2023-04-17T17:18:51.379Z,99.90
2023-04-17T17:21:18.321Z,99.90
2023-04-17T17:23:44.996Z,99.90
2023-04-17T17:26:11.721Z,99.90
2023-04-17T17:28:38.473Z,99.90
2023-04-17T17:31:09.857Z,99.90
2023-04-17T17:33:36.808Z,99.90
2023-04-17T17:36:03.842Z,99.90
2023-04-17T17:38:32.584Z,99.90
2023-04-17T17:40:59.841Z,99.90
2023-04-17T17:43:29.938Z,99.90
2023-04-17T17:45:56.606Z,99.90
2023-04-17T17:48:23.284Z,99.90
2023-04-17T17:50:54.460Z,99.90
2023-04-17T17:53:25.984Z,99.90
2023-04-17T17:55:55.564Z,99.90
2023-04-17T17:58:22.861Z,99.90
2023-04-17T18:00:50.614Z,99.90
2023-04-17T18:03:18.108Z,99.90
2023-04-17T18:05:49.287Z,99.90
2023-04-17T18:08:17.162Z,99.90
2023-04-17T18:10:43.866Z,99.90
2023-04-17T18:13:10.537Z,99.90
2023-04-17T18:15:37.207Z,99.90
2023-04-17T18:18:04.040Z,99.90
2023-04-17T18:20:30.812Z,99.90
2023-04-17T18:22:57.746Z,99.90
2023-04-17T18:25:24.616Z,99.90
2023-04-17T18:27:51.371Z,99.90
2023-04-17T18:30:18.096Z,99.90
2023-04-17T18:32:44.815Z,99.90
2023-04-17T18:35:11.681Z,99.90
2023-04-17T18:37:39.629Z,99.90
2023-04-17T18:40:07.896Z,99.90
2023-04-17T18:42:34.579Z,99.90
2023-04-17T18:45:01.269Z,99.90
2023-04-17T18:47:28.371Z,99.90
2023-04-17T18:49:55.056Z,99.90
2023-04-17T18:52:22.088Z,99.90
2023-04-17T18:54:48.838Z,99.90
2023-04-17T18:57:15.536Z,99.90
2023-04-17T18:59:43.268Z,99.90
2023-04-17T19:02:10.268Z,99.90
2023-04-17T19:04:37.058Z,99.90
2023-04-17T19:07:03.758Z,99.90
2023-04-17T19:09:30.431Z,99.90
2023-04-17T19:11:58.453Z,99.90
2023-04-17T19:14:25.254Z,99.90
2023-04-17T19:16:52.070Z,99.90
2023-04-17T19:19:18.862Z,99.90
2023-04-17T19:21:45.613Z,99.90
2023-04-17T19:24:12.376Z,99.90
2023-04-17T19:26:39.143Z,99.90
2023-04-17T19:29:06.168Z,99.90
2023-04-17T19:31:33.389Z,99.90
2023-04-17T19:34:01.045Z,99.90
2023-04-17T19:36:28.201Z,99.90
2023-04-17T19:38:55.849Z,99.90
2023-04-17T19:41:22.524Z,99.90
2023-04-17T19:43:51.351Z,99.90
2023-04-17T19:46:19.194Z,99.90
2023-04-17T19:48:46.925Z,99.90
2023-04-17T19:51:14.688Z,99.90
2023-04-17T19:53:42.959Z,99.90
2023-04-17T19:56:10.789Z,99.90
2023-04-17T19:58:38.106Z,99.90
2023-04-17T20:01:05.017Z,99.90
2023-04-17T20:03:32.465Z,99.90
2023-04-17T20:06:00.058Z,99.90
2023-04-17T20:08:26.834Z,99.90
2023-04-17T20:10:53.714Z,99.90
2023-04-17T20:13:21.393Z,99.90
2023-04-17T20:15:48.185Z,99.90
2023-04-17T20:18:14.961Z,99.90
2023-04-17T20:20:41.648Z,99.90
2023-04-17T20:23:08.389Z,99.90
2023-04-17T20:25:35.294Z,99.90
2023-04-17T20:28:02.947Z,99.90
2023-04-17T20:30:30.235Z,99.90
2023-04-17T20:32:57.350Z,99.90
2023-04-17T20:35:24.758Z,99.90
2023-04-17T20:37:52.232Z,99.90
2023-04-17T20:40:19.347Z,99.90
2023-04-17T20:42:46.683Z,99.90
2023-04-17T20:45:13.608Z,99.90
2023-04-17T20:47:55.482Z,99.90
2023-04-17T20:50:23.276Z,99.90
2023-04-17T20:52:49.988Z,99.90
2023-04-17T20:55:18.747Z,99.90
2023-04-17T20:57:45.963Z,99.90
2023-04-17T21:00:13.496Z,99.90
2023-04-17T21:02:40.421Z,99.90
2023-04-17T21:05:08.116Z,99.90
2023-04-17T21:07:34.958Z,99.90
2023-04-17T21:10:02.024Z,99.90
2023-04-17T21:12:28.780Z,99.90
2023-04-17T21:14:55.490Z,99.90
2023-04-17T21:17:22.265Z,99.90
2023-04-17T21:19:49.503Z,99.90
2023-04-17T21:22:16.300Z,99.90
2023-04-17T21:24:43.017Z,99.90
2023-04-17T21:27:10.367Z,99.90
2023-04-17T21:29:37.517Z,99.90
2023-04-17T21:32:04.546Z,99.90
2023-04-17T21:34:31.401Z,99.90
2023-04-17T21:36:59.786Z,99.90
2023-04-17T21:39:26.768Z,99.90
2023-04-17T21:41:53.549Z,99.90
2023-04-17T21:44:20.438Z,99.90
2023-04-17T21:46:47.172Z,99.90
2023-04-17T21:49:13.900Z,99.90
2023-04-17T21:51:40.920Z,99.90
2023-04-17T21:54:09.386Z,99.90
2023-04-17T21:56:36.328Z,99.90
2023-04-17T21:59:03.275Z,99.90
2023-04-17T22:01:30.056Z,99.90
2023-04-17T22:03:56.780Z,99.90
2023-04-17T22:06:24.020Z,99.90
2023-04-17T22:08:50.787Z,99.90
2023-04-17T22:11:17.535Z,99.90
2023-04-17T22:13:45.005Z,99.90
2023-04-17T22:16:11.787Z,99.90
2023-04-17T22:18:38.482Z,99.90
2023-04-17T22:21:05.870Z,99.90
2023-04-17T22:23:32.665Z,99.90
2023-04-17T22:25:59.435Z,99.90
2023-04-17T22:28:29.881Z,99.90
2023-04-17T22:30:57.304Z,99.90
2023-04-17T22:33:24.375Z,99.90
2023-04-17T22:35:51.023Z,99.90
2023-04-17T22:38:18.593Z,99.90
2023-04-17T22:40:45.358Z,99.90
2023-04-17T22:43:12.023Z,99.90
2023-04-17T22:45:38.700Z,99.90
2023-04-17T22:48:05.755Z,99.90
2023-04-17T22:50:32.475Z,99.90
2023-04-17T22:52:59.180Z,99.90
2023-04-17T22:55:25.997Z,99.90
2023-04-17T22:57:52.732Z,99.90
2023-04-17T23:00:20.336Z,99.90
2023-04-17T23:02:47.505Z,99.90
2023-04-17T23:05:14.500Z,99.90
2023-04-17T23:07:41.448Z,99.90
2023-04-17T23:10:08.529Z,99.90
2023-04-17T23:12:35.238Z,99.90
2023-04-17T23:15:02.207Z,99.90
2023-04-17T23:17:29.040Z,99.90
2023-04-17T23:19:55.800Z,99.90
2023-04-17T23:22:23.043Z,99.90
2023-04-17T23:24:49.752Z,99.90
2023-04-17T23:27:16.522Z,99.90
2023-04-17T23:29:43.177Z,99.90
2023-04-17T23:32:10.056Z,99.90
2023-04-17T23:34:37.603Z,99.90
2023-04-17T23:37:04.461Z,99.90
2023-04-17T23:39:31.129Z,99.90
2023-04-17T23:41:58.978Z,99.90
2023-04-17T23:44:25.630Z,99.90
2023-04-17T23:46:52.376Z,99.90
2023-04-17T23:49:19.042Z,99.90
2023-04-17T23:51:45.808Z,99.90
2023-04-17T23:54:12.819Z,99.90
2023-04-17T23:56:39.822Z,99.90
2023-04-17T23:59:06.555Z,99.90
